Hauptseite
METAR-TAF:

METAR-TAF

Flughäfen :

Flughafen N’Djamena

N’Djamena, Tschad

Breite: 12-08N, Länge: 015-02E, Höhe: 295 m

Beobachtung

Neuester Wetterbericht von vor 46 Minuten, um 04:00 UTC
Wind 7 kt aus Nord
Temperatur 14°C
Luftfeuchtigkeit 24%
Luftdruck 1015 hPa
Sichtweite 10 km oder mehr
keine Wolken unter 1500 m und keine Kumulonimbus oder Gewitterwolken

METAR: FTTJ 160400Z 01007KT CAVOK 14/M06 Q1015 NOSIG

Zeit: 05:46 (04:46 UTC)

Prognose

Neuester Wetterbericht von vor 5 Stunden und 46 Minuten, um 23:00 UTC
Gültige Prognose vom 16 um 00 UTC bis 17 um 06 UTC
Wind 7 kt aus Nord
Sichtweite: 8000 m
Zeitweise
vom 16 um 05 UTC bis 16 um 07 UTC
Sichtweite: 4000 m
verbreitet Staub

TAF: FTTJ 152300Z 1600/1706 01007KT 8000 NSC TEMPO 1605/1607 4000 DU

Wetterbeobachtungen und Prognosen von mehr als 4000 Flughäfen (METAR und TAF Bericht).

Die verfügbaren Stationen werden durch gelbe und rote Markierungen auf der Karte dargestellt.

Führen Sie die Maus auf sie, um den Namen der Station zu sehen.

Darauf klicken, um die Beobachtung von Wetterbeobachtungen und Prognosen zu sehen.

Um die Karte zu ändern : klicken Sie auf den grünen Tasten mit einem schwarzen Kreuz Zum Vergrößern, auf den grünen Button mit einem Gedankenstrich zu verkleinern, oder auf die grünen Pfeile für benachbarte Karten.


METAR-TAF: